sensor_id;sensor_type;location;lat;lon;timestamp;temperature;humidity
66608;DHT22;53462;39.616;8.824;2024-02-16T00:01:35;11.00;99.90
66608;DHT22;53462;39.616;8.824;2024-02-16T00:04:02;11.00;99.90
66608;DHT22;53462;39.616;8.824;2024-02-16T00:06:27;11.00;99.90
66608;DHT22;53462;39.616;8.824;2024-02-16T00:08:53;10.90;99.90
66608;DHT22;53462;39.616;8.824;2024-02-16T00:11:19;10.90;99.90
66608;DHT22;53462;39.616;8.824;2024-02-16T00:13:45;10.80;99.90
66608;DHT22;53462;39.616;8.824;2024-02-16T00:16:12;10.80;99.90
66608;DHT22;53462;39.616;8.824;2024-02-16T00:18:38;10.80;99.90
66608;DHT22;53462;39.616;8.824;2024-02-16T00:21:04;10.80;99.90
66608;DHT22;53462;39.616;8.824;2024-02-16T00:23:31;10.80;99.90
66608;DHT22;53462;39.616;8.824;2024-02-16T00:25:59;10.80;99.90
66608;DHT22;53462;39.616;8.824;2024-02-16T00:28:25;10.80;99.90
66608;DHT22;53462;39.616;8.824;2024-02-16T00:30:51;10.80;99.90
66608;DHT22;53462;39.616;8.824;2024-02-16T00:33:17;10.70;99.90
66608;DHT22;53462;39.616;8.824;2024-02-16T00:35:44;10.70;99.90
66608;DHT22;53462;39.616;8.824;2024-02-16T00:38:13;10.70;99.90
66608;DHT22;53462;39.616;8.824;2024-02-16T00:40:39;10.70;99.90
66608;DHT22;53462;39.616;8.824;2024-02-16T00:43:10;10.70;99.90
66608;DHT22;53462;39.616;8.824;2024-02-16T00:45:36;10.70;99.60
66608;DHT22;53462;39.616;8.824;2024-02-16T00:48:02;10.70;99.70
66608;DHT22;53462;39.616;8.824;2024-02-16T00:50:29;10.60;99.40
66608;DHT22;53462;39.616;8.824;2024-02-16T00:52:55;10.60;99.00
66608;DHT22;53462;39.616;8.824;2024-02-16T00:55:21;10.70;98.30
66608;DHT22;53462;39.616;8.824;2024-02-16T00:57:47;10.60;98.30
66608;DHT22;53462;39.616;8.824;2024-02-16T01:00:13;10.60;97.80
66608;DHT22;53462;39.616;8.824;2024-02-16T01:02:41;10.70;96.60
66608;DHT22;53462;39.616;8.824;2024-02-16T01:05:07;10.70;96.80
66608;DHT22;53462;39.616;8.824;2024-02-16T01:07:36;10.60;97.40
66608;DHT22;53462;39.616;8.824;2024-02-16T01:10:02;10.50;97.40
66608;DHT22;53462;39.616;8.824;2024-02-16T01:12:29;10.50;97.70
66608;DHT22;53462;39.616;8.824;2024-02-16T01:14:56;10.50;97.40
66608;DHT22;53462;39.616;8.824;2024-02-16T01:17:22;10.50;97.20
66608;DHT22;53462;39.616;8.824;2024-02-16T01:19:48;10.40;97.60
66608;DHT22;53462;39.616;8.824;2024-02-16T01:22:14;10.40;98.10
66608;DHT22;53462;39.616;8.824;2024-02-16T01:24:40;10.50;96.60
66608;DHT22;53462;39.616;8.824;2024-02-16T01:27:06;10.70;93.60
66608;DHT22;53462;39.616;8.824;2024-02-16T01:29:32;10.90;90.90
66608;DHT22;53462;39.616;8.824;2024-02-16T01:31:58;11.10;87.70
66608;DHT22;53462;39.616;8.824;2024-02-16T01:34:24;11.20;86.20
66608;DHT22;53462;39.616;8.824;2024-02-16T01:36:50;11.30;86.00
66608;DHT22;53462;39.616;8.824;2024-02-16T01:39:16;11.40;85.30
66608;DHT22;53462;39.616;8.824;2024-02-16T01:41:42;11.30;86.20
66608;DHT22;53462;39.616;8.824;2024-02-16T01:44:08;11.30;86.80
66608;DHT22;53462;39.616;8.824;2024-02-16T01:46:34;11.30;87.00
66608;DHT22;53462;39.616;8.824;2024-02-16T01:49:01;11.30;87.00
66608;DHT22;53462;39.616;8.824;2024-02-16T01:51:27;11.30;87.50
66608;DHT22;53462;39.616;8.824;2024-02-16T01:53:54;11.20;87.80
66608;DHT22;53462;39.616;8.824;2024-02-16T01:56:21;11.20;88.20
66608;DHT22;53462;39.616;8.824;2024-02-16T01:58:48;11.20;88.20
66608;DHT22;53462;39.616;8.824;2024-02-16T02:01:15;11.20;88.00
66608;DHT22;53462;39.616;8.824;2024-02-16T02:03:41;11.30;87.60
66608;DHT22;53462;39.616;8.824;2024-02-16T02:06:07;11.20;87.30
66608;DHT22;53462;39.616;8.824;2024-02-16T02:08:33;11.20;87.10
66608;DHT22;53462;39.616;8.824;2024-02-16T02:10:59;11.20;87.20
66608;DHT22;53462;39.616;8.824;2024-02-16T02:13:25;11.20;86.90
66608;DHT22;53462;39.616;8.824;2024-02-16T02:15:51;11.20;86.90
66608;DHT22;53462;39.616;8.824;2024-02-16T02:18:16;11.20;86.60
66608;DHT22;53462;39.616;8.824;2024-02-16T02:20:43;11.20;86.50
66608;DHT22;53462;39.616;8.824;2024-02-16T02:23:09;11.20;86.70
66608;DHT22;53462;39.616;8.824;2024-02-16T02:25:35;11.20;86.70
66608;DHT22;53462;39.616;8.824;2024-02-16T02:28:02;11.20;86.30
66608;DHT22;53462;39.616;8.824;2024-02-16T02:30:28;11.30;85.10
66608;DHT22;53462;39.616;8.824;2024-02-16T02:32:55;11.30;84.90
66608;DHT22;53462;39.616;8.824;2024-02-16T02:35:21;11.30;85.10
66608;DHT22;53462;39.616;8.824;2024-02-16T02:37:47;11.30;84.40
66608;DHT22;53462;39.616;8.824;2024-02-16T02:40:13;11.30;84.10
66608;DHT22;53462;39.616;8.824;2024-02-16T02:42:39;11.30;84.90
66608;DHT22;53462;39.616;8.824;2024-02-16T02:45:05;11.20;85.10
66608;DHT22;53462;39.616;8.824;2024-02-16T02:47:31;11.30;84.50
66608;DHT22;53462;39.616;8.824;2024-02-16T02:49:58;11.30;84.40
66608;DHT22;53462;39.616;8.824;2024-02-16T02:52:23;11.30;84.60
66608;DHT22;53462;39.616;8.824;2024-02-16T02:54:49;11.30;84.80
66608;DHT22;53462;39.616;8.824;2024-02-16T02:57:15;11.30;84.70
66608;DHT22;53462;39.616;8.824;2024-02-16T02:59:41;11.30;84.30
66608;DHT22;53462;39.616;8.824;2024-02-16T03:02:07;11.30;84.20
66608;DHT22;53462;39.616;8.824;2024-02-16T03:04:35;11.30;84.70
66608;DHT22;53462;39.616;8.824;2024-02-16T03:07:00;11.20;85.40
66608;DHT22;53462;39.616;8.824;2024-02-16T03:09:26;11.20;85.40
66608;DHT22;53462;39.616;8.824;2024-02-16T03:11:52;11.20;85.60
66608;DHT22;53462;39.616;8.824;2024-02-16T03:14:18;11.10;86.20
66608;DHT22;53462;39.616;8.824;2024-02-16T03:16:44;11.10;86.00
66608;DHT22;53462;39.616;8.824;2024-02-16T03:19:10;11.10;85.70
66608;DHT22;53462;39.616;8.824;2024-02-16T03:21:36;11.00;85.60
66608;DHT22;53462;39.616;8.824;2024-02-16T03:24:02;11.10;84.60
66608;DHT22;53462;39.616;8.824;2024-02-16T03:26:29;11.30;82.80
66608;DHT22;53462;39.616;8.824;2024-02-16T03:28:55;11.30;82.50
66608;DHT22;53462;39.616;8.824;2024-02-16T03:31:23;11.40;81.60
66608;DHT22;53462;39.616;8.824;2024-02-16T03:33:50;11.30;81.30
66608;DHT22;53462;39.616;8.824;2024-02-16T03:36:20;11.40;81.00
66608;DHT22;53462;39.616;8.824;2024-02-16T03:38:47;11.40;79.90
66608;DHT22;53462;39.616;8.824;2024-02-16T03:41:19;11.50;79.00
66608;DHT22;53462;39.616;8.824;2024-02-16T03:43:45;11.50;78.80
66608;DHT22;53462;39.616;8.824;2024-02-16T03:46:11;11.50;78.50
66608;DHT22;53462;39.616;8.824;2024-02-16T03:48:38;11.50;77.80
66608;DHT22;53462;39.616;8.824;2024-02-16T03:51:05;11.60;77.20
66608;DHT22;53462;39.616;8.824;2024-02-16T03:53:31;11.60;77.80
66608;DHT22;53462;39.616;8.824;2024-02-16T03:55:57;11.50;79.40
66608;DHT22;53462;39.616;8.824;2024-02-16T03:58:24;11.40;80.20
66608;DHT22;53462;39.616;8.824;2024-02-16T04:00:50;11.40;81.00
66608;DHT22;53462;39.616;8.824;2024-02-16T04:03:16;11.40;80.70
66608;DHT22;53462;39.616;8.824;2024-02-16T04:05:42;11.40;80.40
66608;DHT22;53462;39.616;8.824;2024-02-16T04:08:08;11.50;79.90
66608;DHT22;53462;39.616;8.824;2024-02-16T04:10:34;11.50;79.30
66608;DHT22;53462;39.616;8.824;2024-02-16T04:13:01;11.60;78.60
66608;DHT22;53462;39.616;8.824;2024-02-16T04:15:28;11.60;78.80
66608;DHT22;53462;39.616;8.824;2024-02-16T04:17:54;11.60;78.60
66608;DHT22;53462;39.616;8.824;2024-02-16T04:20:20;11.60;78.50
66608;DHT22;53462;39.616;8.824;2024-02-16T04:22:46;11.60;78.60
66608;DHT22;53462;39.616;8.824;2024-02-16T04:25:12;11.60;78.30
66608;DHT22;53462;39.616;8.824;2024-02-16T04:27:38;11.60;78.60
66608;DHT22;53462;39.616;8.824;2024-02-16T04:30:05;11.60;78.90
66608;DHT22;53462;39.616;8.824;2024-02-16T04:32:32;11.60;79.30
66608;DHT22;53462;39.616;8.824;2024-02-16T04:34:58;11.60;79.60
66608;DHT22;53462;39.616;8.824;2024-02-16T04:37:25;11.60;80.20
66608;DHT22;53462;39.616;8.824;2024-02-16T04:39:51;11.60;80.50
66608;DHT22;53462;39.616;8.824;2024-02-16T04:42:17;11.60;80.90
66608;DHT22;53462;39.616;8.824;2024-02-16T04:44:44;11.50;81.60
66608;DHT22;53462;39.616;8.824;2024-02-16T04:47:10;11.50;81.70
66608;DHT22;53462;39.616;8.824;2024-02-16T04:49:36;11.50;81.60
66608;DHT22;53462;39.616;8.824;2024-02-16T04:52:03;11.50;81.80
66608;DHT22;53462;39.616;8.824;2024-02-16T04:54:29;11.60;81.50
66608;DHT22;53462;39.616;8.824;2024-02-16T04:56:55;11.70;80.50
66608;DHT22;53462;39.616;8.824;2024-02-16T04:59:21;11.70;80.90
66608;DHT22;53462;39.616;8.824;2024-02-16T05:01:47;11.60;81.40
66608;DHT22;53462;39.616;8.824;2024-02-16T05:04:13;11.60;81.50
66608;DHT22;53462;39.616;8.824;2024-02-16T05:06:45;11.70;81.00
66608;DHT22;53462;39.616;8.824;2024-02-16T05:09:12;11.70;81.10
66608;DHT22;53462;39.616;8.824;2024-02-16T05:11:43;11.70;81.00
66608;DHT22;53462;39.616;8.824;2024-02-16T05:14:10;11.70;81.00
66608;DHT22;53462;39.616;8.824;2024-02-16T05:16:42;11.60;81.20
66608;DHT22;53462;39.616;8.824;2024-02-16T05:19:07;11.70;81.20
66608;DHT22;53462;39.616;8.824;2024-02-16T05:21:33;11.70;81.10
66608;DHT22;53462;39.616;8.824;2024-02-16T05:24:01;11.60;81.70
66608;DHT22;53462;39.616;8.824;2024-02-16T05:26:26;11.60;82.00
66608;DHT22;53462;39.616;8.824;2024-02-16T05:28:52;11.50;82.30
66608;DHT22;53462;39.616;8.824;2024-02-16T05:31:18;11.50;82.60
66608;DHT22;53462;39.616;8.824;2024-02-16T05:33:46;11.50;83.20
66608;DHT22;53462;39.616;8.824;2024-02-16T05:36:15;11.40;83.60
66608;DHT22;53462;39.616;8.824;2024-02-16T05:38:41;11.40;84.00
66608;DHT22;53462;39.616;8.824;2024-02-16T05:41:09;11.40;83.60
66608;DHT22;53462;39.616;8.824;2024-02-16T05:43:35;11.50;83.10
66608;DHT22;53462;39.616;8.824;2024-02-16T05:46:01;11.50;83.70
66608;DHT22;53462;39.616;8.824;2024-02-16T05:48:26;11.60;83.70
66608;DHT22;53462;39.616;8.824;2024-02-16T05:50:59;11.70;83.50
66608;DHT22;53462;39.616;8.824;2024-02-16T05:53:27;11.60;84.10
66608;DHT22;53462;39.616;8.824;2024-02-16T05:55:55;11.60;84.10
66608;DHT22;53462;39.616;8.824;2024-02-16T05:58:21;11.70;84.20
66608;DHT22;53462;39.616;8.824;2024-02-16T06:00:48;11.70;84.60
66608;DHT22;53462;39.616;8.824;2024-02-16T06:03:14;11.60;85.40
66608;DHT22;53462;39.616;8.824;2024-02-16T06:05:40;11.60;86.30
66608;DHT22;53462;39.616;8.824;2024-02-16T06:08:10;11.60;86.70
66608;DHT22;53462;39.616;8.824;2024-02-16T06:10:36;11.60;86.90
66608;DHT22;53462;39.616;8.824;2024-02-16T06:13:02;11.60;86.70
66608;DHT22;53462;39.616;8.824;2024-02-16T06:15:28;11.60;86.70
66608;DHT22;53462;39.616;8.824;2024-02-16T06:17:54;11.60;87.00
66608;DHT22;53462;39.616;8.824;2024-02-16T06:20:20;11.70;87.00
66608;DHT22;53462;39.616;8.824;2024-02-16T06:22:46;11.70;86.50
66608;DHT22;53462;39.616;8.824;2024-02-16T06:25:11;11.80;86.20
66608;DHT22;53462;39.616;8.824;2024-02-16T06:27:38;11.70;86.40
66608;DHT22;53462;39.616;8.824;2024-02-16T06:30:04;11.80;85.70
66608;DHT22;53462;39.616;8.824;2024-02-16T06:32:31;11.90;85.60
66608;DHT22;53462;39.616;8.824;2024-02-16T06:34:57;11.90;85.70
66608;DHT22;53462;39.616;8.824;2024-02-16T06:37:23;11.80;86.40
66608;DHT22;53462;39.616;8.824;2024-02-16T06:39:49;11.90;86.60
66608;DHT22;53462;39.616;8.824;2024-02-16T06:42:15;11.90;86.70
66608;DHT22;53462;39.616;8.824;2024-02-16T06:44:41;11.90;86.30
66608;DHT22;53462;39.616;8.824;2024-02-16T06:47:07;12.00;85.80
66608;DHT22;53462;39.616;8.824;2024-02-16T06:49:33;12.00;85.90
66608;DHT22;53462;39.616;8.824;2024-02-16T06:51:59;12.00;85.40
66608;DHT22;53462;39.616;8.824;2024-02-16T06:54:25;12.10;85.10
66608;DHT22;53462;39.616;8.824;2024-02-16T06:56:51;12.10;85.10
66608;DHT22;53462;39.616;8.824;2024-02-16T06:59:17;12.20;85.20
66608;DHT22;53462;39.616;8.824;2024-02-16T07:01:43;12.10;85.80
66608;DHT22;53462;39.616;8.824;2024-02-16T07:04:09;12.10;86.00
66608;DHT22;53462;39.616;8.824;2024-02-16T07:06:35;12.20;86.30
66608;DHT22;53462;39.616;8.824;2024-02-16T07:09:01;12.10;86.90
66608;DHT22;53462;39.616;8.824;2024-02-16T07:11:30;12.10;87.00
66608;DHT22;53462;39.616;8.824;2024-02-16T07:13:56;12.20;86.90
66608;DHT22;53462;39.616;8.824;2024-02-16T07:16:22;12.20;86.90
66608;DHT22;53462;39.616;8.824;2024-02-16T07:18:48;12.30;86.50
66608;DHT22;53462;39.616;8.824;2024-02-16T07:21:14;12.40;86.20
66608;DHT22;53462;39.616;8.824;2024-02-16T07:23:40;12.30;85.90
66608;DHT22;53462;39.616;8.824;2024-02-16T07:26:05;12.40;85.80
66608;DHT22;53462;39.616;8.824;2024-02-16T07:28:33;12.40;86.20
66608;DHT22;53462;39.616;8.824;2024-02-16T07:30:59;12.50;86.30
66608;DHT22;53462;39.616;8.824;2024-02-16T07:33:25;12.50;86.20
66608;DHT22;53462;39.616;8.824;2024-02-16T07:35:53;12.60;85.90
66608;DHT22;53462;39.616;8.824;2024-02-16T07:38:20;12.60;86.50
66608;DHT22;53462;39.616;8.824;2024-02-16T07:40:47;12.60;86.50
66608;DHT22;53462;39.616;8.824;2024-02-16T07:43:13;12.60;86.90
66608;DHT22;53462;39.616;8.824;2024-02-16T07:45:39;12.70;86.90
66608;DHT22;53462;39.616;8.824;2024-02-16T07:48:05;12.80;86.90
66608;DHT22;53462;39.616;8.824;2024-02-16T07:50:33;12.90;85.70
66608;DHT22;53462;39.616;8.824;2024-02-16T07:52:59;13.10;85.20
66608;DHT22;53462;39.616;8.824;2024-02-16T07:55:25;13.20;84.30
66608;DHT22;53462;39.616;8.824;2024-02-16T07:57:51;13.50;83.00
66608;DHT22;53462;39.616;8.824;2024-02-16T08:00:17;13.70;81.20
66608;DHT22;53462;39.616;8.824;2024-02-16T08:02:43;14.00;80.20
66608;DHT22;53462;39.616;8.824;2024-02-16T08:05:13;14.20;79.70
66608;DHT22;53462;39.616;8.824;2024-02-16T08:07:39;14.50;78.40
66608;DHT22;53462;39.616;8.824;2024-02-16T08:10:08;14.60;79.20
66608;DHT22;53462;39.616;8.824;2024-02-16T08:12:34;14.90;78.60
66608;DHT22;53462;39.616;8.824;2024-02-16T08:15:05;14.70;78.70
66608;DHT22;53462;39.616;8.824;2024-02-16T08:17:34;15.00;77.50
66608;DHT22;53462;39.616;8.824;2024-02-16T08:20:01;15.00;77.70
66608;DHT22;53462;39.616;8.824;2024-02-16T08:22:26;15.10;76.80
66608;DHT22;53462;39.616;8.824;2024-02-16T08:24:52;15.00;77.20
66608;DHT22;53462;39.616;8.824;2024-02-16T08:27:18;15.10;77.50
66608;DHT22;53462;39.616;8.824;2024-02-16T08:29:44;15.50;76.40
66608;DHT22;53462;39.616;8.824;2024-02-16T08:32:10;15.80;74.90
66608;DHT22;53462;39.616;8.824;2024-02-16T08:34:37;15.80;74.10
66608;DHT22;53462;39.616;8.824;2024-02-16T08:37:06;15.50;75.30
66608;DHT22;53462;39.616;8.824;2024-02-16T08:39:33;15.70;75.90
66608;DHT22;53462;39.616;8.824;2024-02-16T08:42:00;16.20;72.50
66608;DHT22;53462;39.616;8.824;2024-02-16T08:44:26;16.10;72.90
66608;DHT22;53462;39.616;8.824;2024-02-16T08:46:52;16.20;73.30
66608;DHT22;53462;39.616;8.824;2024-02-16T08:49:20;16.70;71.80
66608;DHT22;53462;39.616;8.824;2024-02-16T08:51:47;16.80;70.90
66608;DHT22;53462;39.616;8.824;2024-02-16T08:54:13;17.10;70.80
66608;DHT22;53462;39.616;8.824;2024-02-16T08:56:39;17.40;69.50
66608;DHT22;53462;39.616;8.824;2024-02-16T08:59:05;17.00;71.70
66608;DHT22;53462;39.616;8.824;2024-02-16T09:01:36;16.70;72.10
66608;DHT22;53462;39.616;8.824;2024-02-16T09:04:02;16.80;72.50
66608;DHT22;53462;39.616;8.824;2024-02-16T09:06:28;17.40;71.10
66608;DHT22;53462;39.616;8.824;2024-02-16T09:08:54;17.80;70.50
66608;DHT22;53462;39.616;8.824;2024-02-16T09:11:20;18.40;68.50
66608;DHT22;53462;39.616;8.824;2024-02-16T09:13:47;19.00;63.80
66608;DHT22;53462;39.616;8.824;2024-02-16T09:16:13;19.60;61.00
66608;DHT22;53462;39.616;8.824;2024-02-16T09:18:39;19.30;62.00
66608;DHT22;53462;39.616;8.824;2024-02-16T09:21:08;19.80;60.00
66608;DHT22;53462;39.616;8.824;2024-02-16T09:23:35;20.20;58.20
66608;DHT22;53462;39.616;8.824;2024-02-16T09:26:02;20.70;56.50
66608;DHT22;53462;39.616;8.824;2024-02-16T09:28:28;20.70;54.90
66608;DHT22;53462;39.616;8.824;2024-02-16T09:30:55;20.40;55.00
66608;DHT22;53462;39.616;8.824;2024-02-16T09:33:21;19.80;56.10
66608;DHT22;53462;39.616;8.824;2024-02-16T09:35:51;19.60;57.90
66608;DHT22;53462;39.616;8.824;2024-02-16T09:38:17;20.60;54.50
66608;DHT22;53462;39.616;8.824;2024-02-16T09:40:43;20.10;53.30
66608;DHT22;53462;39.616;8.824;2024-02-16T09:43:09;20.20;52.20
66608;DHT22;53462;39.616;8.824;2024-02-16T09:45:35;20.90;50.20
66608;DHT22;53462;39.616;8.824;2024-02-16T09:48:02;21.30;49.90
66608;DHT22;53462;39.616;8.824;2024-02-16T09:50:31;21.10;48.60
66608;DHT22;53462;39.616;8.824;2024-02-16T09:52:57;19.60;51.70
66608;DHT22;53462;39.616;8.824;2024-02-16T09:55:24;19.90;51.50
66608;DHT22;53462;39.616;8.824;2024-02-16T09:58:00;18.80;53.30
66608;DHT22;53462;39.616;8.824;2024-02-16T10:00:26;17.90;56.90
66608;DHT22;53462;39.616;8.824;2024-02-16T10:02:52;17.70;57.50
66608;DHT22;53462;39.616;8.824;2024-02-16T10:05:21;17.70;57.70
66608;DHT22;53462;39.616;8.824;2024-02-16T10:07:47;17.90;58.00
66608;DHT22;53462;39.616;8.824;2024-02-16T10:10:24;18.10;58.10
66608;DHT22;53462;39.616;8.824;2024-02-16T10:13:00;18.90;55.20
66608;DHT22;53462;39.616;8.824;2024-02-16T10:15:26;19.00;53.80
66608;DHT22;53462;39.616;8.824;2024-02-16T10:18:18;18.70;54.30
66608;DHT22;53462;39.616;8.824;2024-02-16T10:20:45;19.50;54.10
66608;DHT22;53462;39.616;8.824;2024-02-16T10:23:12;19.40;53.70
66608;DHT22;53462;39.616;8.824;2024-02-16T10:25:40;19.10;55.10
66608;DHT22;53462;39.616;8.824;2024-02-16T10:28:10;19.30;53.10
66608;DHT22;53462;39.616;8.824;2024-02-16T10:30:41;19.10;54.20
66608;DHT22;53462;39.616;8.824;2024-02-16T10:33:08;19.30;53.90
66608;DHT22;53462;39.616;8.824;2024-02-16T10:35:38;19.40;52.10
66608;DHT22;53462;39.616;8.824;2024-02-16T10:38:07;19.50;53.20
66608;DHT22;53462;39.616;8.824;2024-02-16T10:40:40;19.50;53.00
66608;DHT22;53462;39.616;8.824;2024-02-16T10:43:07;19.80;52.40
66608;DHT22;53462;39.616;8.824;2024-02-16T10:45:37;19.80;51.40
66608;DHT22;53462;39.616;8.824;2024-02-16T10:48:05;20.30;50.70
66608;DHT22;53462;39.616;8.824;2024-02-16T10:50:32;20.40;50.40
66608;DHT22;53462;39.616;8.824;2024-02-16T10:53:12;20.50;51.40
66608;DHT22;53462;39.616;8.824;2024-02-16T10:55:40;20.60;52.00
66608;DHT22;53462;39.616;8.824;2024-02-16T10:58:07;20.80;49.70
66608;DHT22;53462;39.616;8.824;2024-02-16T11:00:33;21.40;49.30
66608;DHT22;53462;39.616;8.824;2024-02-16T11:03:02;21.00;49.20
66608;DHT22;53462;39.616;8.824;2024-02-16T11:05:35;20.70;50.20
66608;DHT22;53462;39.616;8.824;2024-02-16T11:08:12;20.30;50.00
66608;DHT22;53462;39.616;8.824;2024-02-16T11:10:38;20.30;49.10
66608;DHT22;53462;39.616;8.824;2024-02-16T11:13:04;20.50;47.60
66608;DHT22;53462;39.616;8.824;2024-02-16T11:15:32;20.60;45.80
66608;DHT22;53462;39.616;8.824;2024-02-16T11:18:00;20.30;47.30
66608;DHT22;53462;39.616;8.824;2024-02-16T11:20:27;20.40;46.40
66608;DHT22;53462;39.616;8.824;2024-02-16T11:22:53;20.30;46.60
66608;DHT22;53462;39.616;8.824;2024-02-16T11:25:30;19.40;48.70
66608;DHT22;53462;39.616;8.824;2024-02-16T11:27:58;19.60;48.60
66608;DHT22;53462;39.616;8.824;2024-02-16T11:30:25;19.80;49.00
66608;DHT22;53462;39.616;8.824;2024-02-16T11:32:53;19.60;47.70
66608;DHT22;53462;39.616;8.824;2024-02-16T11:35:19;19.40;48.80
66608;DHT22;53462;39.616;8.824;2024-02-16T11:37:45;19.90;48.40
66608;DHT22;53462;39.616;8.824;2024-02-16T11:40:13;19.90;47.70
66608;DHT22;53462;39.616;8.824;2024-02-16T11:42:39;19.30;48.20
66608;DHT22;53462;39.616;8.824;2024-02-16T11:45:10;19.10;48.80
66608;DHT22;53462;39.616;8.824;2024-02-16T11:47:38;18.90;49.90
66608;DHT22;53462;39.616;8.824;2024-02-16T11:50:04;19.00;50.00
66608;DHT22;53462;39.616;8.824;2024-02-16T11:52:32;18.80;48.70
66608;DHT22;53462;39.616;8.824;2024-02-16T11:54:58;18.80;49.20
66608;DHT22;53462;39.616;8.824;2024-02-16T11:57:29;18.60;49.40
66608;DHT22;53462;39.616;8.824;2024-02-16T11:59:56;18.60;50.00
66608;DHT22;53462;39.616;8.824;2024-02-16T12:02:24;18.40;49.60
66608;DHT22;53462;39.616;8.824;2024-02-16T12:05:00;18.50;49.90
66608;DHT22;53462;39.616;8.824;2024-02-16T12:07:27;18.50;49.60
66608;DHT22;53462;39.616;8.824;2024-02-16T12:09:57;18.40;51.90
66608;DHT22;53462;39.616;8.824;2024-02-16T12:12:24;18.20;54.10
66608;DHT22;53462;39.616;8.824;2024-02-16T12:14:52;18.30;55.00
66608;DHT22;53462;39.616;8.824;2024-02-16T12:17:17;18.20;55.40
66608;DHT22;53462;39.616;8.824;2024-02-16T12:19:44;18.10;55.40
66608;DHT22;53462;39.616;8.824;2024-02-16T12:22:11;18.20;54.30
66608;DHT22;53462;39.616;8.824;2024-02-16T12:24:37;18.10;54.90
66608;DHT22;53462;39.616;8.824;2024-02-16T12:27:03;18.10;54.80
66608;DHT22;53462;39.616;8.824;2024-02-16T12:29:29;18.20;55.10
66608;DHT22;53462;39.616;8.824;2024-02-16T12:31:55;18.20;54.00
66608;DHT22;53462;39.616;8.824;2024-02-16T12:34:20;18.10;54.10
66608;DHT22;53462;39.616;8.824;2024-02-16T12:36:46;18.10;54.10
66608;DHT22;53462;39.616;8.824;2024-02-16T12:39:12;18.10;53.90
66608;DHT22;53462;39.616;8.824;2024-02-16T12:41:40;18.10;53.80
66608;DHT22;53462;39.616;8.824;2024-02-16T12:44:08;18.00;55.20
66608;DHT22;53462;39.616;8.824;2024-02-16T12:46:34;18.00;56.20
66608;DHT22;53462;39.616;8.824;2024-02-16T12:49:00;18.10;59.10
66608;DHT22;53462;39.616;8.824;2024-02-16T12:51:26;17.40;67.60
66608;DHT22;53462;39.616;8.824;2024-02-16T12:53:52;17.40;69.30
66608;DHT22;53462;39.616;8.824;2024-02-16T12:56:18;17.10;72.50
66608;DHT22;53462;39.616;8.824;2024-02-16T12:58:44;17.10;72.30
66608;DHT22;53462;39.616;8.824;2024-02-16T13:01:10;17.00;74.00
66608;DHT22;53462;39.616;8.824;2024-02-16T13:03:37;16.90;74.70
66608;DHT22;53462;39.616;8.824;2024-02-16T13:06:03;16.80;75.10
66608;DHT22;53462;39.616;8.824;2024-02-16T13:08:29;16.80;74.90
66608;DHT22;53462;39.616;8.824;2024-02-16T13:10:58;16.70;75.70
66608;DHT22;53462;39.616;8.824;2024-02-16T13:13:24;16.70;76.80
66608;DHT22;53462;39.616;8.824;2024-02-16T13:15:50;16.80;76.50
66608;DHT22;53462;39.616;8.824;2024-02-16T13:18:16;16.80;77.80
66608;DHT22;53462;39.616;8.824;2024-02-16T13:20:43;16.80;78.60
66608;DHT22;53462;39.616;8.824;2024-02-16T13:23:09;16.50;79.90
66608;DHT22;53462;39.616;8.824;2024-02-16T13:25:36;16.60;79.40
66608;DHT22;53462;39.616;8.824;2024-02-16T13:28:02;16.50;79.00
66608;DHT22;53462;39.616;8.824;2024-02-16T13:30:28;16.50;79.80
66608;DHT22;53462;39.616;8.824;2024-02-16T13:32:55;16.70;79.50
66608;DHT22;53462;39.616;8.824;2024-02-16T13:35:21;16.70;79.70
66608;DHT22;53462;39.616;8.824;2024-02-16T13:37:47;16.70;79.60
66608;DHT22;53462;39.616;8.824;2024-02-16T13:40:13;16.70;80.50
66608;DHT22;53462;39.616;8.824;2024-02-16T13:42:39;16.60;80.20
66608;DHT22;53462;39.616;8.824;2024-02-16T13:45:06;16.60;81.30
66608;DHT22;53462;39.616;8.824;2024-02-16T13:47:32;16.50;82.60
66608;DHT22;53462;39.616;8.824;2024-02-16T13:49:58;16.40;83.10
66608;DHT22;53462;39.616;8.824;2024-02-16T13:52:25;16.30;83.80
66608;DHT22;53462;39.616;8.824;2024-02-16T13:54:52;16.20;85.10
66608;DHT22;53462;39.616;8.824;2024-02-16T13:57:18;16.30;86.00
66608;DHT22;53462;39.616;8.824;2024-02-16T13:59:45;16.10;86.00
66608;DHT22;53462;39.616;8.824;2024-02-16T14:02:11;16.00;85.50
66608;DHT22;53462;39.616;8.824;2024-02-16T14:04:38;16.00;86.50
66608;DHT22;53462;39.616;8.824;2024-02-16T14:07:04;16.00;87.20
66608;DHT22;53462;39.616;8.824;2024-02-16T14:09:30;16.10;87.40
66608;DHT22;53462;39.616;8.824;2024-02-16T14:11:55;16.10;87.50
66608;DHT22;53462;39.616;8.824;2024-02-16T14:14:28;16.10;88.00
66608;DHT22;53462;39.616;8.824;2024-02-16T14:16:54;16.10;87.70
66608;DHT22;53462;39.616;8.824;2024-02-16T14:19:20;15.90;88.30
66608;DHT22;53462;39.616;8.824;2024-02-16T14:21:46;15.90;89.90
66608;DHT22;53462;39.616;8.824;2024-02-16T14:24:14;15.90;90.70
66608;DHT22;53462;39.616;8.824;2024-02-16T14:26:41;15.90;91.40
66608;DHT22;53462;39.616;8.824;2024-02-16T14:29:08;15.90;91.80
66608;DHT22;53462;39.616;8.824;2024-02-16T14:31:34;16.00;91.20
66608;DHT22;53462;39.616;8.824;2024-02-16T14:34:00;15.80;91.40
66608;DHT22;53462;39.616;8.824;2024-02-16T14:36:26;16.00;91.60
66608;DHT22;53462;39.616;8.824;2024-02-16T14:38:52;15.90;91.60
66608;DHT22;53462;39.616;8.824;2024-02-16T14:41:18;15.90;92.00
66608;DHT22;53462;39.616;8.824;2024-02-16T14:43:44;15.90;92.50
66608;DHT22;53462;39.616;8.824;2024-02-16T14:46:10;15.90;92.70
66608;DHT22;53462;39.616;8.824;2024-02-16T14:48:36;16.00;91.60
66608;DHT22;53462;39.616;8.824;2024-02-16T14:51:03;16.10;92.20
66608;DHT22;53462;39.616;8.824;2024-02-16T14:53:29;16.00;90.50
66608;DHT22;53462;39.616;8.824;2024-02-16T14:55:56;16.10;90.10
66608;DHT22;53462;39.616;8.824;2024-02-16T14:58:22;16.10;89.90
66608;DHT22;53462;39.616;8.824;2024-02-16T15:00:48;16.10;90.30
66608;DHT22;53462;39.616;8.824;2024-02-16T15:03:15;16.30;90.10
66608;DHT22;53462;39.616;8.824;2024-02-16T15:05:41;16.30;89.10
66608;DHT22;53462;39.616;8.824;2024-02-16T15:08:07;16.30;88.10
66608;DHT22;53462;39.616;8.824;2024-02-16T15:10:33;16.30;88.90
66608;DHT22;53462;39.616;8.824;2024-02-16T15:13:02;16.40;88.80
66608;DHT22;53462;39.616;8.824;2024-02-16T15:15:28;16.40;87.40
66608;DHT22;53462;39.616;8.824;2024-02-16T15:17:54;16.40;87.00
66608;DHT22;53462;39.616;8.824;2024-02-16T15:20:21;16.40;87.10
66608;DHT22;53462;39.616;8.824;2024-02-16T15:22:49;16.30;86.50
66608;DHT22;53462;39.616;8.824;2024-02-16T15:25:15;16.40;86.50
66608;DHT22;53462;39.616;8.824;2024-02-16T15:27:41;16.50;86.50